Time;durP1;ratioP1;P1;durP2;ratioP2;P2;SDS_P1;SDS_P2;PMS_P1;PMS_P2;Temp;Humidity;BMP_temperature;BMP_pressure;BME280_temperature;BME280_humidity;BME280_pressure;Samples;Min_cycle;Max_cycle;Signal;HPM_P1;HPM_P2
2020/12/20 00:01:38;;;;;;;0.70;0.60;;;9.80;99.90;;;10.33;100.00;-20963.13;5016473;28;20520;-70
2020/12/20 00:04:07;;;;;;;0.70;0.70;;;9.80;99.90;;;10.38;100.00;-20964.50;5013969;28;20467;-70
2020/12/20 00:06:36;;;;;;;0.70;0.60;;;9.80;99.90;;;10.38;100.00;-20964.50;5016932;28;20948;-70
2020/12/20 00:09:14;;;;;;;0.70;0.60;;;9.90;99.90;;;10.32;100.00;-20962.97;5016326;28;20461;-70
2020/12/20 00:11:43;;;;;;;0.60;0.60;;;9.90;99.90;;;10.40;100.00;-20965.06;5016642;28;20413;-70
2020/12/20 00:14:34;;;;;;;0.70;0.67;;;9.90;99.90;;;10.49;100.00;-20967.53;5016688;28;20910;-70
2020/12/20 00:17:04;;;;;;;0.60;0.60;;;9.90;99.90;;;10.62;100.00;-20971.16;5015796;28;20432;-70
2020/12/20 00:19:32;;;;;;;0.70;0.70;;;9.90;99.90;;;10.56;100.00;-20969.34;5016329;28;20949;-70
2020/12/20 00:22:02;;;;;;;0.70;0.60;;;9.90;99.90;;;10.58;100.00;-20969.91;5015808;28;20768;-70
2020/12/20 00:24:29;;;;;;;0.70;0.60;;;10.00;99.90;;;10.63;100.00;-20971.28;5012055;28;20499;-70
2020/12/20 00:26:58;;;;;;;0.70;0.70;;;10.00;99.90;;;10.82;100.00;-20976.41;5015537;28;20448;-70
2020/12/20 00:29:27;;;;;;;0.70;0.60;;;10.00;99.90;;;10.75;100.00;-20974.59;5007115;28;20465;-70
2020/12/20 00:31:54;;;;;;;0.70;0.60;;;10.00;99.90;;;10.74;100.00;-20974.19;5010132;28;20454;-70
2020/12/20 00:34:21;;;;;;;0.70;0.60;;;10.00;99.90;;;10.68;100.00;-20972.53;5015832;28;20484;-70
2020/12/20 00:36:49;;;;;;;0.70;0.60;;;10.00;99.90;;;10.60;100.00;-20970.44;5028175;28;20454;-70
2020/12/20 00:39:19;;;;;;;0.70;0.70;;;9.90;99.90;;;10.62;100.00;-20971.00;5003024;28;20464;-70
2020/12/20 00:41:50;;;;;;;1.60;1.50;;;10.00;99.90;;;10.67;100.00;-20972.38;5015884;28;20439;-70
2020/12/20 00:44:19;;;;;;;0.70;0.57;;;10.00;99.90;;;10.78;100.00;-20975.28;5014999;28;20480;-70
2020/12/20 00:46:47;;;;;;;1.37;1.27;;;10.10;99.90;;;10.73;100.00;-20973.91;5012173;28;20878;-70
2020/12/20 00:49:22;;;;;;;0.70;0.70;;;10.00;99.90;;;10.67;100.00;-20972.25;5011758;28;20806;-70
2020/12/20 00:51:55;;;;;;;0.63;0.60;;;10.00;99.90;;;10.66;100.00;-20971.97;4999743;28;20919;-70
2020/12/20 00:54:24;;;;;;;1.77;1.27;;;10.00;99.90;;;10.55;100.00;-20969.22;5029220;28;20483;-70
2020/12/20 00:56:52;;;;;;;0.70;0.60;;;9.90;99.90;;;10.53;100.00;-20968.50;5014750;28;20426;-70
2020/12/20 00:59:21;;;;;;;0.70;0.60;;;9.90;99.90;;;10.53;100.00;-20968.50;5007588;28;20452;-70
2020/12/20 01:01:49;;;;;;;0.70;0.60;;;9.90;99.90;;;10.49;100.00;-20967.53;4994960;28;20426;-70
2020/12/20 01:04:17;;;;;;;0.70;0.60;;;9.90;99.90;;;10.47;100.00;-20966.84;5001894;28;20466;-70
2020/12/20 01:06:45;;;;;;;0.70;0.70;;;9.80;99.90;;;10.48;100.00;-20967.28;5014376;28;20449;-70
2020/12/20 01:09:19;;;;;;;0.70;0.70;;;9.90;99.90;;;10.61;100.00;-20970.88;5030480;28;20496;-70
2020/12/20 01:11:49;;;;;;;0.70;0.60;;;9.90;99.90;;;10.74;100.00;-20974.19;5028381;28;20461;-70
2020/12/20 01:14:18;;;;;;;0.63;0.57;;;10.00;99.90;;;10.56;100.00;-20969.47;5030652;28;20450;-70
2020/12/20 01:17:05;;;;;;;0.70;0.60;;;10.00;99.90;;;10.57;100.00;-20969.63;5014134;28;20453;-70
2020/12/20 01:19:42;;;;;;;0.70;0.60;;;10.00;99.90;;;10.60;100.00;-20970.59;5014322;28;20460;-70
2020/12/20 01:22:09;;;;;;;0.70;0.60;;;10.00;99.90;;;10.59;100.00;-20970.31;5013952;28;20451;-71
2020/12/20 01:24:38;;;;;;;0.70;0.60;;;10.00;99.90;;;10.55;100.00;-20969.22;5030376;28;20452;-70
2020/12/20 01:27:12;;;;;;;0.70;0.67;;;9.90;99.90;;;10.72;100.00;-20973.63;5015102;28;20429;-70
2020/12/20 01:29:40;;;;;;;0.60;0.50;;;10.00;99.90;;;10.62;100.00;-20971.16;5012354;28;20962;-70
2020/12/20 01:32:07;;;;;;;0.60;0.60;;;9.90;99.90;;;10.56;100.00;-20969.34;4999521;28;20440;-70
2020/12/20 01:34:37;;;;;;;0.70;0.60;;;9.90;99.90;;;10.67;100.00;-20972.25;5010435;28;20844;-70
2020/12/20 01:37:04;;;;;;;0.70;0.60;;;9.90;99.90;;;10.81;100.00;-20976.13;5008437;28;20441;-70
2020/12/20 01:39:37;;;;;;;0.70;0.50;;;10.00;99.90;;;10.64;100.00;-20971.69;5013811;28;20525;-70
2020/12/20 01:42:07;;;;;;;0.70;0.63;;;10.00;99.90;;;10.79;100.00;-20975.56;5013958;28;20486;-70
2020/12/20 01:44:39;;;;;;;0.67;0.60;;;10.00;99.90;;;10.69;100.00;-20972.81;5029620;28;20528;-70
2020/12/20 01:47:08;;;;;;;0.73;0.70;;;10.00;99.90;;;10.66;100.00;-20971.97;5012461;28;20455;-70
2020/12/20 01:49:38;;;;;;;0.70;0.70;;;10.00;99.90;;;10.70;100.00;-20973.09;5029700;28;20480;-70
2020/12/20 01:52:06;;;;;;;0.77;0.77;;;10.00;99.90;;;10.78;100.00;-20975.28;5013498;28;20450;-70
2020/12/20 01:54:35;;;;;;;0.70;0.60;;;10.00;99.90;;;10.76;100.00;-20974.75;5029984;28;20447;-70
2020/12/20 01:57:10;;;;;;;0.60;0.60;;;10.10;99.90;;;10.61;100.00;-20970.88;5014060;28;20806;-70
2020/12/20 01:59:57;;;;;;;0.70;0.60;;;10.00;99.90;;;10.61;100.00;-20970.88;5013268;28;20454;-70
2020/12/20 02:02:30;;;;;;;0.70;0.60;;;10.00;99.90;;;10.80;100.00;-20975.84;5013920;28;20513;-71
2020/12/20 02:04:57;;;;;;;0.70;0.60;;;10.10;99.90;;;10.81;100.00;-20976.13;5009670;28;20471;-70
2020/12/20 02:07:25;;;;;;;0.60;0.60;;;10.10;99.90;;;10.82;100.00;-20976.41;4993669;28;20452;-70
2020/12/20 02:09:55;;;;;;;0.70;0.70;;;10.10;99.90;;;10.81;100.00;-20976.13;5000150;28;20465;-70
2020/12/20 02:12:26;;;;;;;1.23;1.03;;;10.10;99.90;;;10.77;100.00;-20975.03;5012997;28;20450;-70
2020/12/20 02:15:05;;;;;;;0.70;0.60;;;10.10;99.90;;;10.75;100.00;-20974.59;5029568;28;20445;-70
2020/12/20 02:17:33;;;;;;;0.70;0.60;;;10.10;99.90;;;10.72;100.00;-20973.63;5029598;28;20458;-70
2020/12/20 02:20:17;;;;;;;0.70;0.70;;;10.10;99.90;;;10.76;100.00;-20974.75;5005204;28;20435;-70
2020/12/20 02:22:56;;;;;;;0.70;0.60;;;10.10;99.90;;;10.83;100.00;-20976.69;5013144;28;20546;-70
2020/12/20 02:25:28;;;;;;;0.70;0.70;;;10.10;99.90;;;10.84;100.00;-20977.09;5009671;28;20435;-70
2020/12/20 02:28:07;;;;;;;0.70;0.70;;;10.20;99.90;;;10.90;100.00;-20978.63;4996585;28;21051;-70
2020/12/20 02:30:36;;;;;;;0.60;0.60;;;10.20;99.90;;;10.89;100.00;-20978.34;5029410;28;20870;-70
2020/12/20 02:33:18;;;;;;;0.60;0.57;;;10.10;99.90;;;11.03;100.00;-20982.22;5014071;28;20486;-70
2020/12/20 02:35:45;;;;;;;0.70;0.70;;;10.20;99.90;;;10.97;100.00;-20980.56;5025541;28;20588;-70
2020/12/20 02:38:15;;;;;;;0.70;0.60;;;10.20;99.90;;;11.02;100.00;-20981.94;5010772;28;20440;-70
2020/12/20 02:40:50;;;;;;;0.70;0.60;;;10.10;99.90;;;11.00;100.00;-20981.25;5013032;28;20484;-70
2020/12/20 02:43:17;;;;;;;0.70;0.60;;;10.20;99.90;;;10.96;100.00;-20980.28;5012955;28;20472;-70
2020/12/20 02:45:44;;;;;;;0.70;0.60;;;10.10;99.90;;;10.72;100.00;-20973.63;5012121;28;20481;-70
2020/12/20 02:48:11;;;;;;;0.60;0.60;;;10.00;99.90;;;10.68;100.00;-20972.66;5029025;28;20462;-70
2020/12/20 02:50:44;;;;;;;0.70;0.60;;;10.00;99.90;;;10.65;100.00;-20971.84;5028323;28;20449;-70
2020/12/20 02:53:12;;;;;;;0.60;0.60;;;9.90;99.90;;;10.61;100.00;-20970.72;5012095;28;20942;-70
2020/12/20 02:55:40;;;;;;;0.70;0.60;;;10.00;99.90;;;10.55;100.00;-20969.22;5011680;28;20446;-70
2020/12/20 02:58:12;;;;;;;0.70;0.60;;;9.90;99.90;;;10.55;100.00;-20969.22;5008318;28;20841;-70
2020/12/20 03:00:51;;;;;;;0.87;0.87;;;9.90;99.90;;;10.67;100.00;-20972.38;5014073;28;20499;-70
2020/12/20 03:03:19;;;;;;;0.70;0.70;;;9.90;99.90;;;10.86;100.00;-20977.50;4994512;28;20494;-70
2020/12/20 03:05:49;;;;;;;0.80;0.80;;;10.00;99.90;;;10.85;100.00;-20977.38;5008459;28;20569;-70
2020/12/20 03:08:17;;;;;;;0.60;0.60;;;10.00;99.90;;;10.75;100.00;-20974.47;5026019;28;20500;-70
2020/12/20 03:10:46;;;;;;;0.70;0.60;;;10.00;99.90;;;10.84;100.00;-20976.94;5011871;28;20941;-70
2020/12/20 03:13:13;;;;;;;0.70;0.60;;;10.10;99.90;;;10.72;100.00;-20973.63;5025525;28;20949;-70
2020/12/20 03:15:43;;;;;;;0.70;0.70;;;10.10;99.90;;;10.80;100.00;-20975.84;5028347;28;20440;-70
2020/12/20 03:18:13;;;;;;;0.70;0.60;;;10.10;99.90;;;10.92;100.00;-20979.16;5026332;28;20469;-70
2020/12/20 03:20:54;;;;;;;0.70;0.70;;;10.10;99.90;;;10.88;100.00;-20978.06;5003427;28;20980;-70
2020/12/20 03:23:22;;;;;;;0.70;0.60;;;10.10;99.90;;;10.96;100.00;-20980.28;5012380;28;20919;-70
2020/12/20 03:26:09;;;;;;;0.70;0.70;;;10.00;99.90;;;11.04;100.00;-20982.34;5013780;28;20408;-70
2020/12/20 03:28:54;;;;;;;0.70;0.63;;;10.00;99.90;;;10.81;100.00;-20976.25;5013293;28;20466;-70
2020/12/20 03:31:50;;;;;;;0.70;0.60;;;10.00;99.90;;;10.83;100.00;-20976.69;4960249;28;20478;-70
2020/12/20 03:34:38;;;;;;;0.70;0.60;;;10.00;99.90;;;10.84;100.00;-20976.94;5008431;28;20533;-70
2020/12/20 03:37:35;;;;;;;0.80;0.80;;;10.10;99.90;;;10.90;100.00;-20978.63;4993868;28;20452;-70
2020/12/20 03:40:09;;;;;;;0.70;0.60;;;10.10;99.90;;;10.72;100.00;-20973.78;5027798;28;20515;-70
2020/12/20 03:42:38;;;;;;;0.70;0.70;;;10.10;99.90;;;10.74;100.00;-20974.19;5028339;28;20537;-70
2020/12/20 03:45:05;;;;;;;0.70;0.70;;;10.00;99.90;;;10.63;100.00;-20971.41;5012114;28;20474;-70
2020/12/20 03:47:32;;;;;;;0.60;0.60;;;10.00;99.90;;;10.67;100.00;-20972.25;5028922;28;20537;-70
2020/12/20 03:50:00;;;;;;;0.70;0.60;;;10.00;99.90;;;10.64;100.00;-20971.56;5011343;28;20474;-70
2020/12/20 03:52:28;;;;;;;0.70;0.60;;;10.00;99.90;;;10.64;100.00;-20971.56;5011577;28;20529;-70
2020/12/20 03:55:14;;;;;;;0.70;0.60;;;10.00;99.90;;;10.79;100.00;-20975.56;5025137;28;20486;-70
2020/12/20 03:57:42;;;;;;;0.70;0.67;;;10.00;99.90;;;10.66;100.00;-20971.97;4992437;28;20442;-70
2020/12/20 04:00:11;;;;;;;0.80;0.80;;;10.00;99.90;;;10.63;100.00;-20971.41;4992525;28;20438;-70
2020/12/20 04:02:55;;;;;;;0.70;0.60;;;10.00;99.90;;;10.57;100.00;-20969.75;5001696;28;20547;-70
2020/12/20 04:05:25;;;;;;;0.70;0.60;;;10.00;99.90;;;10.68;100.00;-20972.66;5010295;28;20546;-70
2020/12/20 04:07:53;;;;;;;0.70;0.60;;;10.00;99.90;;;10.61;100.00;-20970.72;5013670;28;20449;-70
2020/12/20 04:10:20;;;;;;;0.70;0.60;;;9.90;99.90;;;10.72;100.00;-20973.63;5016149;28;20970;-70
2020/12/20 04:12:47;;;;;;;0.70;0.60;;;10.00;99.90;;;10.74;100.00;-20974.19;5031781;28;20445;-70
2020/12/20 04:15:15;;;;;;;0.70;0.60;;;10.00;99.90;;;10.68;100.00;-20972.53;5015190;28;20970;-70
2020/12/20 04:17:43;;;;;;;1.27;1.17;;;10.00;99.90;;;10.71;100.00;-20973.50;5031749;28;20449;-70
2020/12/20 04:20:10;;;;;;;0.70;0.60;;;10.00;99.90;;;10.72;100.00;-20973.78;5016252;28;20946;-70
2020/12/20 04:22:49;;;;;;;0.60;0.60;;;10.10;99.90;;;10.59;100.00;-20970.31;5015424;28;20446;-70
2020/12/20 04:25:28;;;;;;;0.70;0.60;;;10.00;99.90;;;10.67;100.00;-20972.25;5015602;28;20460;-70
2020/12/20 04:28:16;;;;;;;0.70;0.60;;;9.90;99.90;;;10.57;100.00;-20969.75;5014500;28;20462;-70
2020/12/20 04:30:44;;;;;;;0.70;0.60;;;9.90;99.90;;;10.54;100.00;-20968.78;5014877;28;20890;-70
2020/12/20 04:33:19;;;;;;;0.70;0.60;;;9.90;99.90;;;10.53;100.00;-20968.50;5015573;28;20557;-70
2020/12/20 04:35:49;;;;;;;0.70;0.70;;;9.80;99.90;;;10.55;100.00;-20969.22;5014724;28;20462;-70
2020/12/20 04:38:19;;;;;;;0.73;0.70;;;9.90;99.90;;;10.55;100.00;-20969.22;5014618;28;20453;-70
2020/12/20 04:40:49;;;;;;;0.70;0.60;;;9.90;99.90;;;10.59;100.00;-20970.19;5029570;28;20439;-70
2020/12/20 04:43:21;;;;;;;0.70;0.60;;;9.90;99.90;;;10.54;100.00;-20968.94;5014761;28;20446;-70
2020/12/20 04:45:53;;;;;;;0.63;0.57;;;9.90;99.90;;;10.48;100.00;-20967.28;5015061;28;20424;-70
2020/12/20 04:48:38;;;;;;;0.70;0.60;;;9.90;99.90;;;10.61;100.00;-20970.88;5030751;28;20570;-70
2020/12/20 04:51:08;;;;;;;0.80;0.80;;;9.90;99.90;;;10.64;100.00;-20971.69;5031483;28;20438;-70
2020/12/20 04:53:35;;;;;;;0.70;0.60;;;9.90;99.90;;;10.62;100.00;-20971.16;5016160;28;20476;-70
2020/12/20 04:56:08;;;;;;;0.70;0.60;;;9.90;99.90;;;10.62;100.00;-20971.00;5028068;28;20476;-70
2020/12/20 04:58:49;;;;;;;0.60;0.57;;;9.80;99.90;;;10.68;100.00;-20972.66;5002159;28;20437;-70
2020/12/20 05:01:16;;;;;;;0.70;0.70;;;9.80;99.90;;;10.66;100.00;-20972.13;4996921;28;20449;-70
2020/12/20 05:03:45;;;;;;;0.60;0.60;;;9.80;99.90;;;10.70;100.00;-20973.22;5010392;28;20472;-70
2020/12/20 05:06:13;;;;;;;0.60;0.60;;;9.80;99.90;;;10.57;100.00;-20969.75;5014364;28;20477;-70
2020/12/20 05:08:44;;;;;;;0.60;0.60;;;9.80;99.90;;;10.57;100.00;-20969.75;5015178;28;20455;-70
2020/12/20 05:11:34;;;;;;;0.70;0.60;;;9.80;99.90;;;10.53;100.00;-20968.66;5010978;28;20992;-70
2020/12/20 05:14:06;;;;;;;0.70;0.60;;;9.90;99.90;;;10.55;100.00;-20969.22;5021682;28;20446;-70
2020/12/20 05:16:42;;;;;;;2.03;1.67;;;9.90;99.90;;;10.72;100.00;-20973.63;5014097;28;20460;-70
2020/12/20 05:19:17;;;;;;;0.70;0.60;;;9.90;99.90;;;10.75;100.00;-20974.47;5029929;28;20462;-70
2020/12/20 05:21:50;;;;;;;0.70;0.60;;;9.90;99.90;;;10.64;100.00;-20971.69;5013822;28;20510;-70
2020/12/20 05:24:26;;;;;;;0.70;0.60;;;9.90;99.90;;;10.57;100.00;-20969.63;5014106;28;20453;-70
2020/12/20 05:26:55;;;;;;;0.97;0.97;;;9.80;99.90;;;10.48;100.00;-20967.13;5013040;28;20877;-70
2020/12/20 05:29:28;;;;;;;0.70;0.60;;;9.80;99.90;;;10.57;100.00;-20969.75;5013786;28;20814;-70
2020/12/20 05:31:59;;;;;;;0.70;0.60;;;9.80;99.90;;;10.63;100.00;-20971.28;5024086;28;20449;-70
2020/12/20 05:34:36;;;;;;;0.70;0.60;;;9.80;99.90;;;10.69;100.00;-20972.81;5014098;28;20473;-70
2020/12/20 05:37:08;;;;;;;0.70;0.60;;;9.90;99.90;;;10.63;100.00;-20971.28;5013909;28;20454;-70
2020/12/20 05:39:55;;;;;;;0.70;0.70;;;9.90;99.90;;;10.68;100.00;-20972.53;5002803;28;20965;-70
2020/12/20 05:42:53;;;;;;;0.67;0.60;;;9.90;99.90;;;10.61;100.00;-20970.88;5029832;28;20441;-70
2020/12/20 05:45:26;;;;;;;0.70;0.60;;;9.80;99.90;;;10.63;100.00;-20971.41;5013963;28;20906;-70
2020/12/20 05:48:14;;;;;;;0.70;0.60;;;9.80;99.90;;;10.44;100.00;-20966.16;5013522;28;20460;-70
2020/12/20 05:50:51;;;;;;;0.60;0.53;;;9.80;99.90;;;10.52;100.00;-20968.38;5013451;28;20469;-70
2020/12/20 05:53:24;;;;;;;0.60;0.60;;;9.80;99.90;;;10.49;100.00;-20967.53;5030107;28;20430;-70
2020/12/20 05:55:52;;;;;;;0.70;0.60;;;9.80;99.90;;;10.49;100.00;-20967.53;5015182;28;20899;-70
2020/12/20 05:58:19;;;;;;;0.60;0.60;;;9.80;99.90;;;10.47;100.00;-20967.00;5012209;28;20898;-70
2020/12/20 06:00:49;;;;;;;0.70;0.60;;;9.80;99.90;;;10.55;100.00;-20969.22;5014107;28;20497;-70
2020/12/20 06:03:17;;;;;;;0.70;0.70;;;9.80;99.90;;;10.69;100.00;-20972.94;5014596;28;20478;-70
2020/12/20 06:05:45;;;;;;;0.63;0.60;;;9.80;99.90;;;10.53;100.00;-20968.50;5014410;28;20531;-70
2020/12/20 06:08:14;;;;;;;0.70;0.60;;;9.80;99.90;;;10.71;100.00;-20973.34;5014799;28;20432;-70
2020/12/20 06:10:48;;;;;;;0.60;0.60;;;9.80;99.90;;;10.52;100.00;-20968.38;5013438;28;20460;-70
2020/12/20 06:13:19;;;;;;;0.70;0.57;;;9.80;99.90;;;10.64;100.00;-20971.56;5009819;28;20476;-70
2020/12/20 06:15:53;;;;;;;0.63;0.60;;;9.80;99.90;;;10.59;100.00;-20970.31;5014275;28;20808;-70
2020/12/20 06:18:24;;;;;;;0.60;0.50;;;9.80;99.90;;;10.54;100.00;-20968.78;5014510;28;20560;-70
2020/12/20 06:20:55;;;;;;;0.70;0.70;;;9.80;99.90;;;10.73;100.00;-20973.91;5014375;28;20434;-70
2020/12/20 06:23:25;;;;;;;0.60;0.50;;;9.90;99.90;;;10.60;100.00;-20970.59;5012367;28;20478;-70
2020/12/20 06:25:53;;;;;;;0.60;0.50;;;9.80;99.90;;;10.55;100.00;-20969.06;5000639;28;20482;-70
2020/12/20 06:28:23;;;;;;;0.70;0.70;;;9.80;99.90;;;10.53;100.00;-20968.50;5011882;28;20468;-70
2020/12/20 06:30:52;;;;;;;0.67;0.60;;;9.80;99.90;;;10.51;100.00;-20968.09;5011150;28;20544;-70
2020/12/20 06:33:35;;;;;;;0.70;0.60;;;9.70;99.90;;;10.48;100.00;-20967.28;5014544;28;20874;-70
2020/12/20 06:36:08;;;;;;;1.00;1.00;;;9.70;99.90;;;10.48;100.00;-20967.28;5013766;28;20450;-70
2020/12/20 06:38:35;;;;;;;0.67;0.60;;;9.70;99.90;;;10.54;100.00;-20968.94;5014380;28;20909;-70
2020/12/20 06:41:03;;;;;;;0.60;0.60;;;9.70;99.90;;;10.51;100.00;-20967.97;5029260;28;20441;-70
2020/12/20 06:43:33;;;;;;;0.70;0.60;;;9.70;99.90;;;10.40;100.00;-20965.06;5009448;28;20503;-70
2020/12/20 06:46:02;;;;;;;0.67;0.60;;;9.70;99.90;;;10.42;100.00;-20965.47;5005622;28;20926;-70
2020/12/20 06:48:37;;;;;;;0.60;0.60;;;9.70;99.90;;;10.39;100.00;-20964.91;5006156;28;20486;-70
2020/12/20 06:51:06;;;;;;;0.70;0.70;;;9.70;99.90;;;10.45;100.00;-20966.44;5013405;28;20969;-70
2020/12/20 06:53:51;;;;;;;0.60;0.60;;;9.60;99.90;;;10.43;100.00;-20965.88;5012951;28;20429;-70
2020/12/20 06:56:21;;;;;;;0.60;0.60;;;9.60;99.90;;;10.36;100.00;-20963.94;5013015;28;20436;-70
2020/12/20 06:58:49;;;;;;;0.70;0.60;;;9.60;99.90;;;10.31;100.00;-20950.69;5010986;28;20424;-70
2020/12/20 07:01:36;;;;;;;0.70;0.60;;;9.60;99.90;;;10.31;100.00;-20865.69;5003882;28;20510;-70
2020/12/20 07:04:05;;;;;;;0.70;0.70;;;9.50;99.90;;;10.34;100.00;-20678.63;5003857;28;20465;-70
2020/12/20 07:06:32;;;;;;;0.60;0.60;;;9.50;99.90;;;10.37;100.00;-20574.28;5004573;28;20473;-70
2020/12/20 07:09:07;;;;;;;0.70;0.60;;;9.60;99.90;;;10.33;100.00;-20578.22;5002093;28;20434;-70
2020/12/20 07:11:42;;;;;;;0.70;0.60;;;9.60;99.90;;;10.37;100.00;-20534.22;5004104;28;20485;-70
2020/12/20 07:14:20;;;;;;;0.60;0.50;;;9.60;99.90;;;10.27;100.00;-20363.94;5011469;28;20816;-70
2020/12/20 07:16:49;;;;;;;0.60;0.60;;;9.60;99.90;;;10.22;100.00;-20337.41;5013342;28;20434;-70
2020/12/20 07:19:22;;;;;;;0.60;0.60;;;9.50;99.90;;;10.24;100.00;-20122.78;5013382;28;20444;-70
2020/12/20 07:22:06;;;;;;;0.60;0.60;;;9.50;99.90;;;10.09;100.00;-20199.06;5013274;28;20482;-70
2020/12/20 07:24:36;;;;;;;0.60;0.60;;;9.50;99.90;;;10.11;100.00;-19921.72;5013000;28;20430;-70
2020/12/20 07:27:05;;;;;;;0.60;0.60;;;9.40;99.90;;;10.00;100.00;-19746.16;5011715;28;20454;-70
2020/12/20 07:29:35;;;;;;;0.70;0.60;;;9.40;99.90;;;9.97;100.00;-19595.22;5014115;28;20464;-70
2020/12/20 07:32:04;;;;;;;0.70;0.60;;;9.30;99.90;;;9.93;100.00;-19363.94;5012247;28;20983;-70
2020/12/20 07:34:32;;;;;;;0.60;0.50;;;9.30;99.90;;;9.80;100.00;-19180.63;5013124;28;20828;-70
2020/12/20 07:36:59;;;;;;;0.70;0.60;;;9.30;99.90;;;9.84;100.00;-19094.03;5013566;28;20462;-70
2020/12/20 07:39:26;;;;;;;0.60;0.60;;;9.20;99.90;;;9.80;100.00;-19135.47;5013085;28;20543;-70
2020/12/20 07:41:58;;;;;;;0.70;0.60;;;9.20;99.90;;;9.80;100.00;-18980.41;5013318;28;20414;-70
2020/12/20 07:44:32;;;;;;;0.60;0.60;;;9.10;99.90;;;9.73;100.00;-18998.72;5015420;28;20448;-70
2020/12/20 07:47:10;;;;;;;0.70;0.60;;;9.10;99.90;;;9.71;100.00;-18930.53;5016818;28;20509;-70
2020/12/20 07:49:37;;;;;;;0.60;0.60;;;9.10;99.90;;;9.72;100.00;-18778.13;5017158;28;20475;-70
2020/12/20 07:52:08;;;;;;;0.60;0.60;;;9.10;99.90;;;9.80;100.00;-18900.19;5017594;28;20424;-70
2020/12/20 07:54:35;;;;;;;0.70;0.60;;;9.10;99.90;;;9.75;100.00;-19026.59;5016973;28;20428;-70
2020/12/20 07:57:04;;;;;;;1.90;1.23;;;9.10;99.90;;;9.87;100.00;-19092.13;5016232;28;20451;-70
2020/12/20 07:59:32;;;;;;;0.60;0.60;;;9.10;99.90;;;9.83;100.00;-19206.41;5015337;28;20831;-70
2020/12/20 08:01:59;;;;;;;0.60;0.60;;;9.10;99.90;;;9.80;100.00;-19390.72;5007873;28;20799;-70
2020/12/20 08:04:27;;;;;;;0.70;0.60;;;9.10;99.90;;;9.76;100.00;-19474.78;5016646;28;20449;-70
2020/12/20 08:06:54;;;;;;;0.70;0.60;;;9.10;99.90;;;9.79;100.00;-19565.63;5016373;28;20539;-70
2020/12/20 08:09:23;;;;;;;0.70;0.60;;;9.10;99.90;;;9.76;100.00;-19730.00;5016519;28;20565;-70
2020/12/20 08:11:52;;;;;;;0.60;0.60;;;9.10;99.90;;;9.73;100.00;-19826.78;5015891;28;20588;-70
2020/12/20 08:14:21;;;;;;;0.70;0.70;;;9.00;99.90;;;9.70;100.00;-19933.72;5016549;28;20488;-70
2020/12/20 08:16:51;;;;;;;0.60;0.53;;;9.00;99.90;;;9.71;100.00;-20043.91;5016954;28;20444;-70
2020/12/20 08:19:20;;;;;;;0.70;0.60;;;9.00;99.90;;;9.79;100.00;-20071.16;5015122;28;20479;-70
2020/12/20 08:22:04;;;;;;;0.70;0.60;;;9.10;99.90;;;9.96;100.00;-20190.47;5016378;28;21064;-70
2020/12/20 08:24:34;;;;;;;0.60;0.60;;;9.20;99.90;;;9.93;100.00;-20517.59;5016239;28;20433;-70
2020/12/20 08:27:14;;;;;;;0.60;0.50;;;9.20;99.90;;;10.11;100.00;-20577.41;5016164;28;20442;-70
2020/12/20 08:29:43;;;;;;;2.30;2.20;;;9.30;99.90;;;10.14;100.00;-20738.53;5016478;28;20480;-70
2020/12/20 08:32:13;;;;;;;0.70;0.60;;;9.40;99.90;;;10.24;100.00;-20736.13;5016406;28;20425;-70
2020/12/20 08:34:40;;;;;;;0.70;0.60;;;9.40;99.90;;;10.35;100.00;-20874.19;5015218;28;20509;-70
2020/12/20 08:37:13;;;;;;;0.63;0.60;;;9.40;99.90;;;10.23;100.00;-20960.34;5016569;28;20521;-70
2020/12/20 08:39:41;;;;;;;0.70;0.67;;;9.40;99.90;;;10.29;100.00;-20962.00;5012613;28;20461;-70
2020/12/20 08:42:10;;;;;;;1.23;0.70;;;9.40;99.90;;;10.30;100.00;-20962.28;5015137;28;20464;-70
2020/12/20 08:44:40;;;;;;;0.60;0.60;;;9.40;99.90;;;10.36;100.00;-20963.94;5016003;28;20430;-70
2020/12/20 08:47:13;;;;;;;0.80;0.70;;;9.40;99.90;;;10.41;100.00;-20965.34;5015943;28;20924;-70
2020/12/20 08:49:41;;;;;;;0.60;0.50;;;9.50;99.90;;;10.41;100.00;-20965.34;5014609;28;20488;-70
2020/12/20 08:52:12;;;;;;;0.70;0.60;;;9.50;99.90;;;10.52;100.00;-20968.38;5013783;28;20429;-70
2020/12/20 08:54:47;;;;;;;0.70;0.60;;;9.50;99.90;;;10.58;100.00;-20970.03;5014263;28;20425;-70
2020/12/20 08:57:14;;;;;;;0.60;0.60;;;9.60;99.90;;;10.52;100.00;-20968.38;5013410;28;20972;-70
2020/12/20 08:59:43;;;;;;;0.60;0.50;;;9.60;99.90;;;10.61;100.00;-20970.88;4996307;28;20528;-70
2020/12/20 09:02:18;;;;;;;1.20;1.10;;;9.60;99.90;;;10.86;100.00;-20977.50;4998587;28;20529;-70
2020/12/20 09:04:56;;;;;;;0.70;0.70;;;9.70;99.90;;;10.66;100.00;-20972.13;5029773;28;20506;-70
2020/12/20 09:07:38;;;;;;;0.63;0.60;;;9.70;99.90;;;10.73;100.00;-20973.91;4998776;28;20838;-70
2020/12/20 09:10:09;;;;;;;0.70;0.60;;;9.70;99.90;;;10.69;100.00;-20972.81;5003483;28;20463;-70
2020/12/20 09:12:45;;;;;;;0.70;0.60;;;9.70;99.90;;;10.66;100.00;-20971.97;5025533;28;20484;-70
2020/12/20 09:15:15;;;;;;;1.47;0.90;;;9.70;99.90;;;10.74;100.00;-20974.19;4995675;28;20412;-70
2020/12/20 09:17:45;;;;;;;0.70;0.70;;;9.80;99.90;;;11.05;100.00;-20982.75;5004304;28;20444;-70
2020/12/20 09:20:14;;;;;;;0.80;0.80;;;9.80;99.90;;;10.92;100.00;-20979.16;5015562;28;20831;-70
2020/12/20 09:22:52;;;;;;;0.70;0.60;;;9.90;99.90;;;11.07;100.00;-20983.19;5015289;28;20436;-70
2020/12/20 09:25:33;;;;;;;0.70;0.60;;;9.90;99.90;;;10.95;100.00;-20980.00;5015022;28;20500;-70
2020/12/20 09:28:02;;;;;;;0.70;0.60;;;9.90;99.90;;;11.07;100.00;-20983.31;5008469;28;20447;-70
2020/12/20 09:30:43;;;;;;;0.70;0.70;;;10.00;99.90;;;11.20;100.00;-20986.63;5002846;28;20512;-70
2020/12/20 09:33:32;;;;;;;0.77;0.77;;;10.00;99.90;;;11.11;100.00;-20984.28;5008312;28;20527;-70
2020/12/20 09:36:02;;;;;;;0.70;0.60;;;10.10;99.90;;;11.29;100.00;-20989.13;5009482;28;20469;-70
2020/12/20 09:38:38;;;;;;;0.70;0.60;;;10.20;99.90;;;11.37;100.00;-20991.47;5015449;28;20905;-70
2020/12/20 09:41:07;;;;;;;1.03;1.03;;;10.20;99.90;;;11.45;100.00;-20993.41;5015491;28;20472;-70
2020/12/20 09:43:34;;;;;;;0.70;0.70;;;10.30;99.90;;;11.50;100.00;-20994.78;5029870;28;20443;-70
2020/12/20 09:46:02;;;;;;;0.70;0.60;;;10.30;99.90;;;11.45;100.00;-20993.41;5014446;28;20556;-70
2020/12/20 09:48:29;;;;;;;0.70;0.60;;;10.30;99.90;;;11.57;100.00;-20996.84;5013770;28;20453;-70
2020/12/20 09:50:57;;;;;;;0.70;0.70;;;10.30;99.90;;;11.57;100.00;-20996.84;5014320;28;20457;-70
2020/12/20 09:53:29;;;;;;;0.70;0.60;;;10.40;99.90;;;11.43;100.00;-20993.00;5015016;28;20406;-70
2020/12/20 09:55:56;;;;;;;0.70;0.60;;;10.40;99.90;;;11.55;100.00;-20996.31;5013517;28;20445;-70
2020/12/20 09:58:23;;;;;;;0.70;0.70;;;10.40;99.90;;;11.81;100.00;-21003.22;5014037;28;20536;-70
2020/12/20 10:00:50;;;;;;;0.70;0.60;;;10.40;99.90;;;11.81;100.00;-21003.22;5012607;28;20457;-70
2020/12/20 10:03:17;;;;;;;0.80;0.70;;;10.40;99.90;;;11.57;100.00;-20996.72;5009439;28;20471;-70
2020/12/20 10:05:45;;;;;;;0.70;0.60;;;10.50;99.90;;;11.59;100.00;-20997.28;4992755;28;20448;-70
2020/12/20 10:08:14;;;;;;;0.70;0.60;;;10.50;99.90;;;11.74;100.00;-21001.41;5011777;28;20999;-70
2020/12/20 10:10:42;;;;;;;0.70;0.60;;;10.60;99.90;;;11.87;100.00;-21004.88;5013506;28;20456;-70
2020/12/20 10:13:10;;;;;;;0.70;0.60;;;10.60;99.90;;;12.05;100.00;-21009.84;5010292;28;20948;-70
2020/12/20 10:15:37;;;;;;;0.70;0.60;;;10.60;99.90;;;11.89;100.00;-21005.44;5005886;28;20450;-70
2020/12/20 10:18:03;;;;;;;0.80;0.70;;;10.60;99.90;;;11.83;100.00;-21003.91;5002328;28;20505;-70
2020/12/20 10:20:34;;;;;;;0.70;0.60;;;10.60;99.90;;;11.83;100.00;-21003.75;5004081;28;20440;-70
2020/12/20 10:23:01;;;;;;;0.70;0.60;;;10.60;99.90;;;11.97;100.00;-21007.63;4999816;28;20440;-70
2020/12/20 10:25:28;;;;;;;0.70;0.60;;;10.60;99.90;;;12.01;100.00;-21008.75;5012402;28;20443;-70
2020/12/20 10:27:56;;;;;;;0.70;0.70;;;10.70;99.90;;;11.96;100.00;-21007.34;5013690;28;20437;-70
2020/12/20 10:30:25;;;;;;;0.70;0.60;;;10.70;99.90;;;12.01;100.00;-21008.75;5010566;28;20464;-70